Belleville, Illinois
Current Conditions -  °F | °C
As of 4:18 AM on Thursday 23 Oct 2014 (Local Time) from KBLV Reporting Station
Haze Haze  
Wind Chill: 37°   Ceiling: Unl
Heat Index: 37°   Visibility: 2.5mi
Dew Point: 37°   Wind: 2mph
Humidity: 100%   Direction: 260°W
Pressure: 30.21"   Gusts: NA
Location:  38.51°N, 89.98°W
Report Text: KBLV 230918Z AUTO 26002KT 2 1/2SM R14L/3500FT BR CLR 03/03 A3021 RMK AO2 VIS 2 1/2V4
Loading
Personal Weather Stations






























Interactive Weather Map
Tropical Storm Tracking
New forecast layout! Learn more

10-Day Weather Forecast

Advertisements
Track Severe Weather on mobile